Time;durP1;ratioP1;P1;durP2;ratioP2;P2;SDS_P1;SDS_P2;PMS_P1;PMS_P2;Temp;Humidity;BMP_temperature;BMP_pressure;BME280_temperature;BME280_humidity;BME280_pressure;Samples;Min_cycle;Max_cycle;Signal;HPM_P1;HPM_P2
2022/06/23 00:01:47;;;;;;;4.95;2.90;;;;;;;;;;5072842;28;20038;-55
2022/06/23 00:04:18;;;;;;;3.47;2.65;;;;;;;;;;5072729;28;20052;-56
2022/06/23 00:06:53;;;;;;;3.53;2.35;;;;;;;;;;5072747;28;20044;-55
2022/06/23 00:09:35;;;;;;;5.75;3.20;;;;;;;;;;5072809;28;20131;-55
2022/06/23 00:12:31;;;;;;;3.97;3.13;;;;;;;;;;5072500;28;20521;-55
2022/06/23 00:14:58;;;;;;;4.38;2.92;;;;;;;;;;5070964;28;20143;-54
2022/06/23 00:17:28;;;;;;;4.88;3.30;;;;;;;;;;5072899;28;20492;-55
2022/06/23 00:19:59;;;;;;;5.72;3.45;;;;;;;;;;5072669;28;20040;-55
2022/06/23 00:22:30;;;;;;;5.68;3.70;;;;;;;;;;5072722;28;20044;-54
2022/06/23 00:25:02;;;;;;;5.05;2.83;;;;;;;;;;5072237;28;20450;-52
2022/06/23 00:27:35;;;;;;;7.30;3.70;;;;;;;;;;5071585;28;20046;-55
2022/06/23 00:30:18;;;;;;;;;;;;;;;;;;5071262;28;20051;-53
2022/06/23 00:32:46;;;;;;;3.65;2.95;;;;;;;;;;5072436;28;19920;-53
2022/06/23 00:35:16;;;;;;;4.85;3.63;;;;;;;;;;5072109;28;20032;-55
2022/06/23 00:37:49;;;;;;;4.13;2.63;;;;;;;;;;5072168;28;20075;-56
2022/06/23 00:40:24;;;;;;;4.13;2.70;;;;;;;;;;5072036;28;20598;-54
2022/06/23 00:43:00;;;;;;;3.50;2.67;;;;;;;;;;5072012;28;20041;-54
2022/06/23 00:45:34;;;;;;;4.38;2.30;;;;;;;;;;5072179;28;20052;-53
2022/06/23 00:48:08;;;;;;;4.18;2.67;;;;;;;;;;5071912;28;20054;-56
2022/06/23 00:50:56;;;;;;;4.60;2.40;;;;;;;;;;5072066;28;20040;-55
2022/06/23 00:53:37;;;;;;;8.10;2.55;;;;;;;;;;5071853;28;20036;-54
2022/06/23 00:56:24;;;;;;;4.72;2.60;;;;;;;;;;5071702;28;20079;-55
2022/06/23 00:58:58;;;;;;;5.50;3.15;;;;;;;;;;5072001;28;20407;-55
2022/06/23 01:01:40;;;;;;;8.10;2.42;;;;;;;;;;5071973;28;20053;-56
2022/06/23 01:04:17;;;;;;;6.75;2.90;;;;;;;;;;5071538;28;20048;-55
2022/06/23 01:06:57;;;;;;;3.90;2.58;;;;;;;;;;5071700;28;20055;-54
2022/06/23 01:09:39;;;;;;;3.22;2.50;;;;;;;;;;5071876;28;20522;-55
2022/06/23 01:12:31;;;;;;;3.90;2.90;;;;;;;;;;5071227;28;20494;-52
2022/06/23 01:15:11;;;;;;;4.95;2.60;;;;;;;;;;5071430;28;20055;-55
2022/06/23 01:17:43;;;;;;;4.63;2.50;;;;;;;;;;5071432;28;20503;-54
2022/06/23 01:20:18;;;;;;;6.10;2.80;;;;;;;;;;5071435;28;20044;-54
2022/06/23 01:22:48;;;;;;;4.15;3.20;;;;;;;;;;5071386;28;20192;-55
2022/06/23 01:26:03;;;;;;;4.00;2.80;;;;;;;;;;5071252;28;20499;-52
2022/06/23 01:28:40;;;;;;;5.05;2.47;;;;;;;;;;5062679;28;20495;-51
2022/06/23 01:31:26;;;;;;;4.20;2.90;;;;;;;;;;5071069;28;20040;-56
2022/06/23 01:34:12;;;;;;;4.93;3.50;;;;;;;;;;5071437;28;20044;-50
2022/06/23 01:36:54;;;;;;;4.78;2.40;;;;;;;;;;5069740;28;20033;-55
2022/06/23 01:39:24;;;;;;;3.63;2.40;;;;;;;;;;5070807;28;20139;-56
2022/06/23 01:42:24;;;;;;;5.65;3.38;;;;;;;;;;5070975;28;20150;-56
2022/06/23 01:45:14;;;;;;;3.85;2.70;;;;;;;;;;5066600;28;20044;-54
2022/06/23 01:48:08;;;;;;;8.63;2.30;;;;;;;;;;5070705;28;20124;-56
2022/06/23 01:50:40;;;;;;;;;;;;;;;;;;5071405;28;20048;-54
2022/06/23 01:53:29;;;;;;;2.88;1.90;;;;;;;;;;5069611;28;20390;-55
2022/06/23 01:56:05;;;;;;;3.15;2.08;;;;;;;;;;5070586;28;20500;-54
2022/06/23 01:58:51;;;;;;;6.28;1.95;;;;;;;;;;5070771;28;20041;-55
2022/06/23 02:01:32;;;;;;;3.63;2.10;;;;;;;;;;5070569;28;20040;-52
2022/06/23 02:04:11;;;;;;;3.97;2.15;;;;;;;;;;5070602;28;20041;-55
2022/06/23 02:06:53;;;;;;;4.13;1.60;;;;;;;;;;5070588;28;20091;-50
2022/06/23 02:09:33;;;;;;;3.55;1.90;;;;;;;;;;5070473;28;20082;-53
2022/06/23 02:12:00;;;;;;;4.75;1.83;;;;;;;;;;5069079;28;20041;-50
2022/06/23 02:14:45;;;;;;;3.45;2.15;;;;;;;;;;5070723;28;20134;-52
2022/06/23 02:17:18;;;;;;;2.67;1.80;;;;;;;;;;5070577;28;20047;-55
2022/06/23 02:19:52;;;;;;;3.13;2.22;;;;;;;;;;5070267;28;20036;-52
2022/06/23 02:22:37;;;;;;;2.95;1.95;;;;;;;;;;5070339;28;20074;-55
2022/06/23 02:25:25;;;;;;;3.72;2.05;;;;;;;;;;5070202;28;20041;-56
2022/06/23 02:28:05;;;;;;;3.08;2.08;;;;;;;;;;5070351;28;20059;-51
2022/06/23 02:30:41;;;;;;;2.55;1.95;;;;;;;;;;5069935;28;20517;-56
2022/06/23 02:33:14;;;;;;;5.15;2.20;;;;;;;;;;5070396;28;20044;-53
2022/06/23 02:36:01;;;;;;;3.35;1.90;;;;;;;;;;5070059;28;20040;-52
2022/06/23 02:39:02;;;;;;;2.70;1.90;;;;;;;;;;5069961;28;20486;-52
2022/06/23 02:41:35;;;;;;;3.25;1.73;;;;;;;;;;5064912;28;20525;-52
2022/06/23 02:44:19;;;;;;;3.95;2.83;;;;;;;;;;5069754;28;20086;-55
2022/06/23 02:47:12;;;;;;;2.67;1.70;;;;;;;;;;5070114;28;20047;-54
2022/06/23 02:49:42;;;;;;;4.20;1.70;;;;;;;;;;5070215;28;20067;-54
2022/06/23 02:52:33;;;;;;;5.03;1.80;;;;;;;;;;5073937;28;20040;-54
2022/06/23 02:55:27;;;;;;;2.92;2.05;;;;;;;;;;5074125;28;20079;-55
2022/06/23 02:57:55;;;;;;;3.75;1.83;;;;;;;;;;5074433;28;20044;-55
2022/06/23 03:00:32;;;;;;;2.65;1.60;;;;;;;;;;5073949;28;20491;-48
2022/06/23 03:03:19;;;;;;;4.03;2.22;;;;;;;;;;5073957;28;20044;-44
2022/06/23 03:05:50;;;;;;;6.00;1.75;;;;;;;;;;5073996;28;20068;-56
2022/06/23 03:08:24;;;;;;;2.85;1.63;;;;;;;;;;5074002;28;20045;-54
2022/06/23 03:11:17;;;;;;;3.63;1.77;;;;;;;;;;5073873;28;20040;-56
2022/06/23 03:14:02;;;;;;;5.00;2.05;;;;;;;;;;5057934;28;20055;-55
2022/06/23 03:16:41;;;;;;;3.10;1.70;;;;;;;;;;5073622;28;20067;-59
2022/06/23 03:19:22;;;;;;;2.85;1.67;;;;;;;;;;5073663;28;20098;-55
2022/06/23 03:22:00;;;;;;;4.18;2.30;;;;;;;;;;5073847;28;20503;-51
2022/06/23 03:24:39;;;;;;;3.13;1.50;;;;;;;;;;5073689;28;20052;-56
2022/06/23 03:27:25;;;;;;;3.40;1.70;;;;;;;;;;5072923;28;20040;-56
2022/06/23 03:30:18;;;;;;;4.05;1.80;;;;;;;;;;5073571;28;20075;-56
2022/06/23 03:32:52;;;;;;;2.95;2.00;;;;;;;;;;5073356;28;20520;-56
2022/06/23 03:35:25;;;;;;;2.38;1.80;;;;;;;;;;5073363;28;20040;-54
2022/06/23 03:38:15;;;;;;;4.07;2.25;;;;;;;;;;5088736;28;20033;-56
2022/06/23 03:43:48;;;;;;;3.72;2.00;;;;;;;;;;5073293;28;20074;-56
2022/06/23 03:46:27;;;;;;;5.72;1.90;;;;;;;;;;5073107;28;20070;-56
2022/06/23 03:49:08;;;;;;;3.55;2.05;;;;;;;;;;5073343;28;20550;-56
2022/06/23 03:51:40;;;;;;;2.78;2.03;;;;;;;;;;5072938;28;20079;-51
2022/06/23 03:54:10;;;;;;;3.03;1.88;;;;;;;;;;5071957;28;20063;-56
2022/06/23 03:56:46;;;;;;;3.15;1.90;;;;;;;;;;5073169;28;20074;-56
2022/06/23 03:59:19;;;;;;;3.10;1.95;;;;;;;;;;5073045;28;20089;-47
2022/06/23 04:01:55;;;;;;;2.85;1.92;;;;;;;;;;5071665;28;20068;-51
2022/06/23 04:04:42;;;;;;;3.75;1.92;;;;;;;;;;5072683;28;20127;-55
2022/06/23 04:07:35;;;;;;;3.55;1.58;;;;;;;;;;5072592;28;20492;-56
2022/06/23 04:10:06;;;;;;;4.55;2.42;;;;;;;;;;5070185;28;20045;-53
2022/06/23 04:12:58;;;;;;;4.50;2.03;;;;;;;;;;5072577;28;20052;-57
2022/06/23 04:15:34;;;;;;;3.10;1.95;;;;;;;;;;5072704;28;20059;-55
2022/06/23 04:18:08;;;;;;;6.03;1.80;;;;;;;;;;5072630;28;20043;-53
2022/06/23 04:20:48;;;;;;;3.85;2.15;;;;;;;;;;5072533;28;20055;-54
2022/06/23 04:23:21;;;;;;;2.45;1.83;;;;;;;;;;5072366;28;20036;-53
2022/06/23 04:25:51;;;;;;;3.85;2.33;;;;;;;;;;5072292;28;20052;-53
2022/06/23 04:28:20;;;;;;;3.00;2.08;;;;;;;;;;5072632;28;20044;-56
2022/06/23 04:30:48;;;;;;;3.65;2.00;;;;;;;;;;5072345;28;20044;-57
2022/06/23 04:33:20;;;;;;;4.03;2.10;;;;;;;;;;5072400;28;20051;-46
2022/06/23 04:35:54;;;;;;;4.57;2.10;;;;;;;;;;5072370;28;20036;-53
2022/06/23 04:38:37;;;;;;;3.50;2.25;;;;;;;;;;5071959;28;20796;-56
2022/06/23 04:41:24;;;;;;;4.22;1.98;;;;;;;;;;5072244;28;20044;-52
2022/06/23 04:44:14;;;;;;;3.70;1.90;;;;;;;;;;5072050;28;20041;-56
2022/06/23 04:46:44;;;;;;;4.30;1.85;;;;;;;;;;5071997;28;20041;-56
2022/06/23 04:49:20;;;;;;;2.95;1.98;;;;;;;;;;5072160;28;20041;-56
2022/06/23 04:51:53;;;;;;;3.33;1.60;;;;;;;;;;5072020;28;20492;-57
2022/06/23 04:54:23;;;;;;;;;;;;;;;;;;5072304;28;20041;-56
2022/06/23 04:57:15;;;;;;;2.75;1.80;;;;;;;;;;5071831;28;20735;-57
2022/06/23 04:59:51;;;;;;;4.55;2.47;;;;;;;;;;5071766;28;20048;-61
2022/06/23 05:02:29;;;;;;;3.60;2.22;;;;;;;;;;5071685;28;20411;-56
2022/06/23 05:05:14;;;;;;;2.50;1.90;;;;;;;;;;5071646;28;20048;-52
2022/06/23 05:07:50;;;;;;;3.15;1.90;;;;;;;;;;5071373;28;20060;-54
2022/06/23 05:10:28;;;;;;;3.35;1.98;;;;;;;;;;5071872;28;20522;-57
2022/06/23 05:13:03;;;;;;;26.27;14.13;;;;;;;;;;5071216;28;20079;-53
2022/06/23 05:15:36;;;;;;;6.15;2.63;;;;;;;;;;5071447;28;20078;-58
2022/06/23 05:18:35;;;;;;;5.20;2.00;;;;;;;;;;5071175;28;20062;-53
2022/06/23 05:21:27;;;;;;;4.50;1.75;;;;;;;;;;5069424;28;20045;-53
2022/06/23 05:23:59;;;;;;;4.47;1.52;;;;;;;;;;5071163;28;20503;-57
2022/06/23 05:26:50;;;;;;;4.90;1.80;;;;;;;;;;5071388;28;20055;-57
2022/06/23 05:29:23;;;;;;;3.97;1.60;;;;;;;;;;5071143;28;20040;-57
2022/06/23 05:31:57;;;;;;;3.30;1.77;;;;;;;;;;5071392;28;20460;-57
2022/06/23 05:34:29;;;;;;;4.60;1.70;;;;;;;;;;5071150;28;20045;-57
2022/06/23 05:37:01;;;;;;;4.90;2.33;;;;;;;;;;5069915;28;20040;-58
2022/06/23 05:40:01;;;;;;;12.73;5.78;;;;;;;;;;5069765;28;20051;-47
2022/06/23 05:42:32;;;;;;;3.90;1.85;;;;;;;;;;5069670;28;20057;-57
2022/06/23 05:45:09;;;;;;;2.97;1.92;;;;;;;;;;5070657;28;20054;-51
2022/06/23 05:47:38;;;;;;;2.65;1.70;;;;;;;;;;5070929;28;20090;-52
2022/06/23 05:50:11;;;;;;;6.43;2.15;;;;;;;;;;5070623;28;20090;-56
2022/06/23 05:52:49;;;;;;;;;;;;;;;;;;5071212;28;20461;-56
2022/06/23 05:55:25;;;;;;;3.15;1.80;;;;;;;;;;5070663;28;19920;-56
2022/06/23 05:58:32;;;;;;;24.08;11.85;;;;;;;;;;5070935;28;20047;-57
2022/06/23 06:01:03;;;;;;;4.15;2.63;;;;;;;;;;5070842;28;20056;-47
2022/06/23 06:03:49;;;;;;;3.92;1.90;;;;;;;;;;5070562;28;20044;-57
2022/06/23 06:06:20;;;;;;;7.38;2.17;;;;;;;;;;5070508;28;20036;-49
2022/06/23 06:12:00;;;;;;;4.75;1.80;;;;;;;;;;5070977;28;20040;-58
2022/06/23 06:14:33;;;;;;;2.75;1.65;;;;;;;;;;5070645;28;20072;-54
2022/06/23 06:17:01;;;;;;;4.85;1.60;;;;;;;;;;5070401;28;20403;-53
2022/06/23 06:19:31;;;;;;;5.10;1.85;;;;;;;;;;5070764;28;20033;-57
2022/06/23 06:22:13;;;;;;;4.07;2.47;;;;;;;;;;5070428;28;20037;-53
2022/06/23 06:24:45;;;;;;;6.32;2.42;;;;;;;;;;5069366;28;20556;-49
2022/06/23 06:27:13;;;;;;;2.65;1.70;;;;;;;;;;5070202;28;20044;-55
2022/06/23 06:29:44;;;;;;;2.83;1.75;;;;;;;;;;5070262;28;20152;-56
2022/06/23 06:32:33;;;;;;;2.20;1.45;;;;;;;;;;5069826;28;20043;-53
2022/06/23 06:35:16;;;;;;;3.72;2.03;;;;;;;;;;5070122;28;20044;-57
2022/06/23 06:37:49;;;;;;;4.28;1.80;;;;;;;;;;5069699;28;20041;-56
2022/06/23 06:40:19;;;;;;;4.03;2.28;;;;;;;;;;5070090;28;20048;-57
2022/06/23 06:42:56;;;;;;;5.70;1.85;;;;;;;;;;5070131;28;20078;-49
2022/06/23 06:45:29;;;;;;;3.88;1.80;;;;;;;;;;5070009;28;20041;-55
2022/06/23 06:47:57;;;;;;;62.00;33.58;;;;;;;;;;5069986;28;20040;-50
2022/06/23 06:50:36;;;;;;;5.95;2.65;;;;;;;;;;5070136;28;20043;-56
2022/06/23 06:53:26;;;;;;;4.35;2.10;;;;;;;;;;5069745;28;20040;-55
2022/06/23 06:56:17;;;;;;;3.17;1.90;;;;;;;;;;5069597;28;20041;-56
2022/06/23 06:59:00;;;;;;;3.80;2.00;;;;;;;;;;5070133;28;20041;-55
2022/06/23 07:01:30;;;;;;;3.28;2.00;;;;;;;;;;5069048;28;20040;-55
2022/06/23 07:03:58;;;;;;;6.35;2.10;;;;;;;;;;5068761;28;20377;-47
2022/06/23 07:06:41;;;;;;;3.08;1.73;;;;;;;;;;5069129;28;20036;-54
2022/06/23 07:09:26;;;;;;;3.05;2.00;;;;;;;;;;5069571;28;20044;-57
2022/06/23 07:12:28;;;;;;;4.63;2.03;;;;;;;;;;5069250;28;20047;-55
2022/06/23 07:15:09;;;;;;;3.20;2.05;;;;;;;;;;5069814;28;20039;-46
2022/06/23 07:17:48;;;;;;;5.10;2.70;;;;;;;;;;5069721;28;20048;-57
2022/06/23 07:20:28;;;;;;;5.18;1.98;;;;;;;;;;5069729;28;20035;-54
2022/06/23 07:23:04;;;;;;;6.72;2.40;;;;;;;;;;5069957;28;20041;-55
2022/06/23 07:25:37;;;;;;;4.20;2.33;;;;;;;;;;5069496;28;20048;-56
2022/06/23 07:28:18;;;;;;;3.20;2.13;;;;;;;;;;5069839;28;20090;-57
2022/06/23 07:30:55;;;;;;;6.20;2.35;;;;;;;;;;5069662;28;20106;-51
2022/06/23 07:33:27;;;;;;;3.67;2.40;;;;;;;;;;5069568;28;20033;-54
2022/06/23 07:36:05;;;;;;;4.05;2.33;;;;;;;;;;5070101;28;20040;-55
2022/06/23 07:38:40;;;;;;;6.00;3.00;;;;;;;;;;5072946;28;20043;-52
2022/06/23 07:41:14;;;;;;;4.13;2.60;;;;;;;;;;5073198;28;20442;-51
2022/06/23 07:43:53;;;;;;;5.88;3.05;;;;;;;;;;5073261;28;20045;-57
2022/06/23 07:46:21;;;;;;;9.10;2.20;;;;;;;;;;5073152;28;20115;-55
2022/06/23 07:48:48;;;;;;;4.72;3.03;;;;;;;;;;5073218;28;20450;-54
2022/06/23 07:51:16;;;;;;;3.67;2.33;;;;;;;;;;5073073;28;20033;-55
2022/06/23 07:53:47;;;;;;;3.03;2.15;;;;;;;;;;5073010;28;20377;-49
2022/06/23 07:56:17;;;;;;;3.70;2.50;;;;;;;;;;5071749;28;20045;-53
2022/06/23 07:58:47;;;;;;;7.28;2.65;;;;;;;;;;5072925;28;20072;-57
2022/06/23 08:01:24;;;;;;;5.97;2.42;;;;;;;;;;5072864;28;20385;-53
2022/06/23 08:04:19;;;;;;;5.97;2.70;;;;;;;;;;5072705;28;20119;-57
2022/06/23 08:06:48;;;;;;;3.97;2.17;;;;;;;;;;5072933;28;20044;-56
2022/06/23 08:09:23;;;;;;;5.10;2.35;;;;;;;;;;5072674;28;20086;-56
2022/06/23 08:17:58;;;;;;;4.97;2.45;;;;;;;;;;5072805;28;20060;-57
2022/06/23 08:20:26;;;;;;;66.80;42.63;;;;;;;;;;5072525;28;20155;-55
2022/06/23 08:22:55;;;;;;;6.28;3.55;;;;;;;;;;5072553;28;20052;-54
2022/06/23 08:25:23;;;;;;;4.63;2.90;;;;;;;;;;5072460;28;20044;-52
2022/06/23 08:27:52;;;;;;;9.15;3.30;;;;;;;;;;5072375;28;20052;-45
2022/06/23 08:30:23;;;;;;;5.15;2.35;;;;;;;;;;5072206;28;20568;-56
2022/06/23 08:32:53;;;;;;;5.95;2.90;;;;;;;;;;5072152;28;20080;-56
2022/06/23 08:35:39;;;;;;;3.35;2.50;;;;;;;;;;5072472;28;20049;-55
2022/06/23 08:38:12;;;;;;;3.67;2.30;;;;;;;;;;5072020;28;20041;-53
2022/06/23 08:41:06;;;;;;;9.48;6.32;;;;;;;;;;5072371;28;20056;-54
2022/06/23 08:43:55;;;;;;;4.18;2.80;;;;;;;;;;5072126;28;20037;-56
2022/06/23 08:46:46;;;;;;;4.30;2.80;;;;;;;;;;5071599;28;20492;-56
2022/06/23 08:49:16;;;;;;;4.75;3.17;;;;;;;;;;5071217;28;20491;-54
2022/06/23 08:51:55;;;;;;;5.60;2.40;;;;;;;;;;5071893;28;20048;-55
2022/06/23 08:54:31;;;;;;;3.88;2.55;;;;;;;;;;5071835;28;20055;-55
2022/06/23 08:57:16;;;;;;;4.40;2.63;;;;;;;;;;5071880;28;20040;-55
2022/06/23 08:59:58;;;;;;;4.13;1.95;;;;;;;;;;5071577;28;20059;-54
2022/06/23 09:03:05;;;;;;;20.50;13.55;;;;;;;;;;5071712;28;20446;-42
2022/06/23 09:05:36;;;;;;;5.90;4.18;;;;;;;;;;5071651;28;20048;-54
2022/06/23 09:08:30;;;;;;;5.68;2.03;;;;;;;;;;5071299;28;20037;-49
2022/06/23 09:11:23;;;;;;;4.45;2.47;;;;;;;;;;5071658;28;20036;-55
2022/06/23 09:14:17;;;;;;;4.78;2.65;;;;;;;;;;5071469;28;20065;-52
2022/06/23 09:17:34;;;;;;;4.15;2.33;;;;;;;;;;5069753;28;20086;-55
2022/06/23 09:20:10;;;;;;;5.20;2.40;;;;;;;;;;5053453;28;20049;-44
2022/06/23 09:23:08;;;;;;;4.25;2.10;;;;;;;;;;5069441;28;20055;-53
2022/06/23 09:25:56;;;;;;;5.35;2.40;;;;;;;;;;5069122;28;20044;-52
2022/06/23 09:28:51;;;;;;;2.78;1.90;;;;;;;;;;5069308;28;20052;-53
2022/06/23 09:31:25;;;;;;;3.65;2.10;;;;;;;;;;5068106;28;20085;-51
2022/06/23 09:33:59;;;;;;;2.85;2.13;;;;;;;;;;5068937;28;20609;-55
2022/06/23 09:36:55;;;;;;;3.65;2.05;;;;;;;;;;5069188;28;20102;-56
2022/06/23 09:39:36;;;;;;;4.53;2.20;;;;;;;;;;5068943;28;20458;-56
2022/06/23 09:42:22;;;;;;;4.00;2.33;;;;;;;;;;5068967;28;20603;-54
2022/06/23 09:45:02;;;;;;;4.32;2.22;;;;;;;;;;5068708;28;20090;-53
2022/06/23 09:47:45;;;;;;;4.75;2.38;;;;;;;;;;5069296;28;20049;-56
2022/06/23 09:50:21;;;;;;;3.95;2.22;;;;;;;;;;5070315;28;20045;-55
2022/06/23 09:52:57;;;;;;;3.55;1.98;;;;;;;;;;5070682;28;20048;-51
2022/06/23 09:56:09;;;;;;;3.45;1.98;;;;;;;;;;5070687;28;20056;-50
2022/06/23 09:59:01;;;;;;;3.42;1.95;;;;;;;;;;5070932;28;20040;-55
2022/06/23 10:01:46;;;;;;;5.90;2.40;;;;;;;;;;5070800;28;20389;-48
2022/06/23 10:04:40;;;;;;;4.63;1.80;;;;;;;;;;5070555;28;20059;-57
2022/06/23 10:07:19;;;;;;;3.58;2.40;;;;;;;;;;5069675;28;20048;-55
2022/06/23 10:10:02;;;;;;;3.67;2.13;;;;;;;;;;5070460;28;20040;-57
2022/06/23 10:12:56;;;;;;;3.75;2.20;;;;;;;;;;5070793;28;20056;-54
2022/06/23 10:15:30;;;;;;;3.42;1.98;;;;;;;;;;5051534;28;20137;-57
2022/06/23 10:18:18;;;;;;;4.25;2.30;;;;;;;;;;5070567;28;20402;-57
2022/06/23 10:20:59;;;;;;;6.28;2.20;;;;;;;;;;5070354;28;20075;-56
2022/06/23 10:24:13;;;;;;;6.28;2.38;;;;;;;;;;5070697;28;20476;-56
2022/06/23 10:27:03;;;;;;;5.53;2.22;;;;;;;;;;5070150;28;20385;-56
2022/06/23 10:29:45;;;;;;;3.63;2.20;;;;;;;;;;5067820;28;20060;-46
2022/06/23 10:32:27;;;;;;;5.35;2.60;;;;;;;;;;5070120;28;20119;-56
2022/06/23 10:35:13;;;;;;;3.88;2.33;;;;;;;;;;5070258;28;20041;-56
2022/06/23 10:37:47;;;;;;;4.90;2.53;;;;;;;;;;5070191;28;20102;-57
2022/06/23 10:40:46;;;;;;;4.45;2.38;;;;;;;;;;5070031;28;20036;-51
2022/06/23 10:43:31;;;;;;;5.05;2.45;;;;;;;;;;5066184;28;20507;-48
2022/06/23 10:46:38;;;;;;;3.55;2.60;;;;;;;;;;5070281;28;20077;-57
2022/06/23 10:49:20;;;;;;;4.85;2.65;;;;;;;;;;5058750;28;20628;-57
2022/06/23 10:52:11;;;;;;;3.00;2.37;;;;;;;;;;5070193;28;20047;-57
2022/06/23 10:55:01;;;;;;;6.15;3.05;;;;;;;;;;5070070;28;20495;-56
2022/06/23 10:57:41;;;;;;;5.43;2.45;;;;;;;;;;5070192;28;20033;-56
2022/06/23 11:00:14;;;;;;;3.65;2.45;;;;;;;;;;5069945;28;20043;-54
2022/06/23 11:03:00;;;;;;;3.50;2.30;;;;;;;;;;5070107;28;20048;-57
2022/06/23 11:05:49;;;;;;;5.80;2.55;;;;;;;;;;5069524;28;20052;-57
2022/06/23 11:08:34;;;;;;;4.10;2.63;;;;;;;;;;5069678;28;20068;-57
2022/06/23 11:11:30;;;;;;;164.02;105.30;;;;;;;;;;5070750;28;20139;-43
2022/06/23 11:14:32;;;;;;;13.07;6.85;;;;;;;;;;5074053;28;20045;-56
2022/06/23 11:17:19;;;;;;;3.55;2.33;;;;;;;;;;5073912;28;20044;-57
2022/06/23 11:19:55;;;;;;;3.92;2.10;;;;;;;;;;5073570;28;20045;-53
2022/06/23 11:22:53;;;;;;;4.50;2.10;;;;;;;;;;5073749;28;20407;-57
2022/06/23 11:25:41;;;;;;;3.85;2.10;;;;;;;;;;5077643;28;20045;-57
2022/06/23 11:28:29;;;;;;;4.82;2.25;;;;;;;;;;5073498;28;20040;-57
2022/06/23 11:31:09;;;;;;;6.47;2.75;;;;;;;;;;5073299;28;20048;-58
2022/06/23 11:33:42;;;;;;;3.42;2.08;;;;;;;;;;5073225;28;20040;-55
2022/06/23 11:36:28;;;;;;;;;;;;;;;;;;5089109;28;20735;-57
2022/06/23 11:39:19;;;;;;;201.45;97.07;;;;;;;;;;5073283;28;19928;-56
2022/06/23 11:42:08;;;;;;;6.07;3.20;;;;;;;;;;5073207;28;20040;-56
2022/06/23 11:44:43;;;;;;;6.05;2.10;;;;;;;;;;5072764;28;20054;-57
2022/06/23 11:47:23;;;;;;;5.25;2.30;;;;;;;;;;5073478;28;20082;-57
2022/06/23 11:50:01;;;;;;;5.65;2.28;;;;;;;;;;5072656;28;20051;-57
2022/06/23 11:52:48;;;;;;;4.35;2.35;;;;;;;;;;5073223;28;20054;-45
2022/06/23 11:55:36;;;;;;;5.60;2.35;;;;;;;;;;5073064;28;20048;-57
2022/06/23 11:58:25;;;;;;;3.83;1.90;;;;;;;;;;5072739;28;20040;-56
2022/06/23 12:01:10;;;;;;;5.55;2.10;;;;;;;;;;5072889;28;20032;-57
2022/06/23 12:03:54;;;;;;;8.50;2.33;;;;;;;;;;5073097;28;20040;-58
2022/06/23 12:07:02;;;;;;;4.40;1.75;;;;;;;;;;5072823;28;20075;-54
2022/06/23 12:09:45;;;;;;;3.85;2.17;;;;;;;;;;5065415;28;20054;-57
2022/06/23 12:12:13;;;;;;;3.55;1.88;;;;;;;;;;5072404;28;20033;-53
2022/06/23 12:14:40;;;;;;;4.82;1.90;;;;;;;;;;5072626;28;20499;-58
2022/06/23 12:17:18;;;;;;;5.65;3.53;;;;;;;;;;5072528;28;20106;-56
2022/06/23 12:20:00;;;;;;;3.97;2.08;;;;;;;;;;5072697;28;20103;-56
2022/06/23 12:22:53;;;;;;;5.68;1.80;;;;;;;;;;5070472;28;20447;-52
2022/06/23 12:25:26;;;;;;;;;;;;;;;;;;5072677;28;20048;-52
2022/06/23 12:28:04;;;;;;;3.22;1.60;;;;;;;;;;5072605;28;19924;-56
2022/06/23 12:34:52;;;;;;;3.20;1.58;;;;;;;;;;5069747;28;20051;-56
2022/06/23 12:37:38;;;;;;;2.15;1.55;;;;;;;;;;5069873;28;20040;-55
2022/06/23 12:40:39;;;;;;;5.03;1.95;;;;;;;;;;5030109;28;20041;-56
2022/06/23 12:43:35;;;;;;;4.22;1.50;;;;;;;;;;5029880;28;20041;-52
2022/06/23 12:46:36;;;;;;;5.57;1.70;;;;;;;;;;5028391;28;20087;-57
2022/06/23 12:49:35;;;;;;;6.53;1.98;;;;;;;;;;5029745;28;20517;-54
2022/06/23 12:52:28;;;;;;;6.10;1.90;;;;;;;;;;5029769;28;20061;-58
2022/06/23 12:55:26;;;;;;;2.17;1.45;;;;;;;;;;5029684;28;20049;-57
2022/06/23 12:58:16;;;;;;;8.32;1.75;;;;;;;;;;5029455;28;20076;-56
2022/06/23 13:01:15;;;;;;;11.18;6.05;;;;;;;;;;5029720;28;20060;-59
2022/06/23 13:03:52;;;;;;;7.20;2.30;;;;;;;;;;5029751;28;20587;-57
2022/06/23 13:06:22;;;;;;;2.67;1.60;;;;;;;;;;5029287;28;20049;-54
2022/06/23 13:09:02;;;;;;;3.15;1.60;;;;;;;;;;5029376;28;20047;-56
2022/06/23 13:12:05;;;;;;;2.95;1.52;;;;;;;;;;5045769;28;20053;-58
2022/06/23 13:14:53;;;;;;;2.30;1.50;;;;;;;;;;5051698;28;20045;-56
2022/06/23 13:17:32;;;;;;;2.67;1.92;;;;;;;;;;5051456;28;20496;-54
2022/06/23 13:20:13;;;;;;;3.13;1.73;;;;;;;;;;5051226;28;20056;-50
2022/06/23 13:22:55;;;;;;;2.97;1.50;;;;;;;;;;5051096;28;20045;-56
2022/06/23 13:25:29;;;;;;;3.97;1.88;;;;;;;;;;5051186;28;20492;-56
2022/06/23 13:27:57;;;;;;;4.95;1.50;;;;;;;;;;5051207;28;20051;-57
2022/06/23 13:30:50;;;;;;;5.50;1.70;;;;;;;;;;5051126;28;20106;-57
2022/06/23 13:33:28;;;;;;;4.38;1.63;;;;;;;;;;5050718;28;20045;-54
2022/06/23 13:36:04;;;;;;;3.65;2.25;;;;;;;;;;5050961;28;20041;-55
2022/06/23 13:38:57;;;;;;;4.32;1.70;;;;;;;;;;5059668;28;20044;-58
2022/06/23 13:41:37;;;;;;;4.25;2.63;;;;;;;;;;5070848;28;20495;-57
2022/06/23 13:44:22;;;;;;;3.67;2.03;;;;;;;;;;5068578;28;20487;-57
2022/06/23 13:47:04;;;;;;;7.45;1.80;;;;;;;;;;5069744;28;20152;-56
2022/06/23 13:49:53;;;;;;;4.28;1.92;;;;;;;;;;5070152;28;20400;-52
2022/06/23 13:52:40;;;;;;;2.67;1.45;;;;;;;;;;5070493;28;20040;-51
2022/06/23 13:55:26;;;;;;;4.20;1.63;;;;;;;;;;5070624;28;20050;-56
2022/06/23 13:58:14;;;;;;;6.95;1.98;;;;;;;;;;5070468;28;20448;-52
2022/06/23 14:00:58;;;;;;;2.38;1.63;;;;;;;;;;5069101;28;20547;-50
2022/06/23 14:03:49;;;;;;;18.45;14.52;;;;;;;;;;5070475;28;20036;-53
2022/06/23 14:06:36;;;;;;;7.65;4.15;;;;;;;;;;5070355;28;20097;-58
2022/06/23 14:09:28;;;;;;;5.57;1.90;;;;;;;;;;5070345;28;20090;-55
2022/06/23 14:12:18;;;;;;;3.50;1.80;;;;;;;;;;5070049;28;20475;-54
2022/06/23 14:15:17;;;;;;;3.70;1.70;;;;;;;;;;5070174;28;20132;-52
2022/06/23 14:17:55;;;;;;;2.63;1.67;;;;;;;;;;5066612;28;20127;-56
2022/06/23 14:20:34;;;;;;;3.03;1.70;;;;;;;;;;5069817;28;20060;-56
2022/06/23 14:23:12;;;;;;;4.15;2.03;;;;;;;;;;5070099;28;20041;-54
2022/06/23 14:26:09;;;;;;;5.30;2.05;;;;;;;;;;5068183;28;20210;-52
2022/06/23 14:28:49;;;;;;;2.47;1.50;;;;;;;;;;5069879;28;20072;-54
2022/06/23 14:31:20;;;;;;;5.50;1.83;;;;;;;;;;5070226;28;20134;-52
2022/06/23 14:33:58;;;;;;;5.00;1.80;;;;;;;;;;5069642;28;20090;-53
2022/06/23 14:36:39;;;;;;;5.40;1.67;;;;;;;;;;5069583;28;20040;-56
2022/06/23 14:39:41;;;;;;;3.95;1.83;;;;;;;;;;5069613;28;20044;-57
2022/06/23 14:42:26;;;;;;;5.30;2.30;;;;;;;;;;5069612;28;20039;-48
2022/06/23 14:45:26;;;;;;;3.08;1.80;;;;;;;;;;5069608;28;20072;-56
2022/06/23 14:48:27;;;;;;;3.22;1.83;;;;;;;;;;5034033;28;20060;-55
2022/06/23 14:51:15;;;;;;;3.15;1.85;;;;;;;;;;5069585;28;20044;-52
2022/06/23 14:53:49;;;;;;;4.30;1.63;;;;;;;;;;5069657;28;20518;-52
2022/06/23 14:56:38;;;;;;;4.22;1.80;;;;;;;;;;5069574;28;20044;-54
2022/06/23 14:59:37;;;;;;;4.72;1.60;;;;;;;;;;5069466;28;20102;-52
2022/06/23 15:02:31;;;;;;;5.13;1.80;;;;;;;;;;5066314;28;20045;-55
2022/06/23 15:05:24;;;;;;;2.88;1.77;;;;;;;;;;5053966;28;20044;-53
2022/06/23 15:08:15;;;;;;;6.80;2.10;;;;;;;;;;5069912;28;20046;-54
2022/06/23 15:10:44;;;;;;;3.65;1.83;;;;;;;;;;5069740;28;20068;-55
2022/06/23 15:13:41;;;;;;;6.10;1.65;;;;;;;;;;5069300;28;20076;-55
2022/06/23 15:16:15;;;;;;;3.20;1.63;;;;;;;;;;5068475;28;20090;-56
2022/06/23 15:18:58;;;;;;;4.35;1.67;;;;;;;;;;5069418;28;20040;-55
2022/06/23 15:24:44;;;;;;;2.72;1.63;;;;;;;;;;5069542;28;20388;-54
2022/06/23 15:27:23;;;;;;;4.47;2.20;;;;;;;;;;5069300;28;20041;-54
2022/06/23 15:30:01;;;;;;;3.00;1.60;;;;;;;;;;5069431;28;20052;-55
2022/06/23 15:32:44;;;;;;;4.57;2.20;;;;;;;;;;5069026;28;20056;-54
2022/06/23 15:35:11;;;;;;;;;;;;;;;;;;5069519;28;20048;-56
2022/06/23 15:37:47;;;;;;;4.53;2.00;;;;;;;;;;5069288;28;19928;-56
2022/06/23 15:40:44;;;;;;;2.55;1.73;;;;;;;;;;5068771;28;20040;-55
2022/06/23 15:43:25;;;;;;;3.63;1.65;;;;;;;;;;5069136;28;20127;-50
2022/06/23 15:46:22;;;;;;;3.53;1.70;;;;;;;;;;5068785;28;20411;-55
2022/06/23 15:48:59;;;;;;;6.00;2.00;;;;;;;;;;5069266;28;20048;-54
2022/06/23 15:51:34;;;;;;;2.78;1.70;;;;;;;;;;5069072;28;20063;-53
2022/06/23 15:54:42;;;;;;;3.15;1.88;;;;;;;;;;5068899;28;20404;-52
2022/06/23 15:57:42;;;;;;;5.07;2.00;;;;;;;;;;5069939;28;20059;-56
2022/06/23 16:00:18;;;;;;;6.05;2.05;;;;;;;;;;5055071;28;20040;-54
2022/06/23 16:03:00;;;;;;;2.83;1.70;;;;;;;;;;5072561;28;20094;-51
2022/06/23 16:05:54;;;;;;;4.97;2.42;;;;;;;;;;5072319;28;20583;-55
2022/06/23 16:08:28;;;;;;;6.30;1.85;;;;;;;;;;5072627;28;20072;-56
2022/06/23 16:10:57;;;;;;;4.63;1.95;;;;;;;;;;5060331;28;20036;-49
2022/06/23 16:13:36;;;;;;;4.03;1.80;;;;;;;;;;5068695;28;20054;-54
2022/06/23 16:16:08;;;;;;;3.38;1.80;;;;;;;;;;5072169;28;20152;-56
2022/06/23 16:18:48;;;;;;;4.55;1.80;;;;;;;;;;5072267;28;20036;-54
2022/06/23 16:21:30;;;;;;;4.30;1.63;;;;;;;;;;5072241;28;20126;-56
2022/06/23 16:24:13;;;;;;;3.85;1.95;;;;;;;;;;5072208;28;20530;-41
2022/06/23 16:27:25;;;;;;;5.63;1.67;;;;;;;;;;5072104;28;20530;-49
2022/06/23 16:30:02;;;;;;;2.80;1.70;;;;;;;;;;5009076;28;20096;-49